Time;durP1;ratioP1;P1;durP2;ratioP2;P2;SDS_P1;SDS_P2;PMS_P1;PMS_P2;Temp;Humidity;BMP_temperature;BMP_pressure;BME280_temperature;BME280_humidity;BME280_pressure;Samples;Min_cycle;Max_cycle;Signal;HPM_P1;HPM_P2
2023/03/16 00:01:26;;;;;;;3.57;1.10;;;;;;;-0.47;100.00;98999.06;4940411;29;20676;-54
2023/03/16 00:03:52;;;;;;;1.20;0.93;;;;;;;-0.50;99.45;98999.22;4938984;29;20330;-56
2023/03/16 00:06:20;;;;;;;1.60;1.00;;;;;;;-0.56;98.87;99004.63;4938163;29;20231;-54
2023/03/16 00:08:47;;;;;;;1.47;1.00;;;;;;;-0.61;99.05;99001.44;4940792;29;20245;-54
2023/03/16 00:11:13;;;;;;;2.90;1.00;;;;;;;-0.57;99.37;98997.03;4927795;29;21166;-55
2023/03/16 00:13:41;;;;;;;1.50;1.00;;;;;;;-0.56;99.50;99002.06;4939469;29;20721;-56
2023/03/16 00:16:08;;;;;;;1.43;1.10;;;;;;;-0.62;99.36;98998.06;4941689;29;20289;-56
2023/03/16 00:18:37;;;;;;;4.50;1.00;;;;;;;-0.53;100.00;98994.22;4939378;29;20234;-52
2023/03/16 00:21:05;;;;;;;1.97;1.03;;;;;;;-0.55;100.00;99001.16;4941549;29;20782;-52
2023/03/16 00:23:35;;;;;;;1.33;1.00;;;;;;;-0.51;100.00;99001.84;4936205;29;20243;-54
2023/03/16 00:26:04;;;;;;;3.37;1.17;;;;;;;-0.46;99.42;98999.88;4941013;29;20826;-56
2023/03/16 00:28:33;;;;;;;2.03;1.00;;;;;;;-0.50;99.46;98995.81;4939614;29;20230;-53
2023/03/16 00:31:01;;;;;;;1.70;1.07;;;;;;;-0.42;100.00;99005.72;4935173;29;20238;-56
2023/03/16 00:33:27;;;;;;;3.23;1.00;;;;;;;-0.39;100.00;99006.41;4936012;29;20751;-56
2023/03/16 00:36:02;;;;;;;3.10;1.10;;;;;;;-0.51;100.00;99007.81;4942810;29;20240;-57
2023/03/16 00:38:31;;;;;;;1.63;1.07;;;;;;;-0.54;100.00;99009.69;4938946;29;20737;-53
2023/03/16 00:41:02;;;;;;;6.53;1.17;;;;;;;-0.54;100.00;99005.38;4940193;29;20230;-57
2023/03/16 00:43:29;;;;;;;3.45;1.30;;;;;;;-0.53;100.00;98999.34;4916554;29;20508;-54
2023/03/16 00:46:05;;;;;;;1.53;0.83;;;;;;;-0.48;100.00;98996.56;4929843;29;20244;-57
2023/03/16 00:48:33;;;;;;;2.77;0.87;;;;;;;-0.46;100.00;98992.19;4939101;29;20252;-52
2023/03/16 00:51:00;;;;;;;1.80;1.10;;;;;;;-0.56;100.00;98996.13;4938139;29;20377;-52
2023/03/16 00:53:27;;;;;;;3.50;0.90;;;;;;;-0.52;100.00;98990.75;4926145;29;20572;-56
2023/03/16 00:55:54;;;;;;;3.97;1.10;;;;;;;-0.55;100.00;98984.97;4937520;29;20230;-54
2023/03/16 00:58:23;;;;;;;1.33;1.10;;;;;;;-0.62;100.00;98975.00;4936494;29;20231;-55
2023/03/16 01:00:52;;;;;;;1.10;0.70;;;;;;;-0.64;100.00;98971.66;4944162;29;20235;-53
2023/03/16 01:03:19;;;;;;;2.97;1.10;;;;;;;-0.66;100.00;98970.06;4936754;29;20802;-56
2023/03/16 01:05:46;;;;;;;3.30;1.10;;;;;;;-0.54;100.00;98976.38;4940164;29;20290;-54
2023/03/16 01:08:12;;;;;;;1.43;1.03;;;;;;;-0.52;100.00;98982.22;4937119;29;20229;-54
2023/03/16 01:10:40;;;;;;;1.50;1.00;;;;;;;-0.64;100.00;98981.06;4933926;29;20305;-55
2023/03/16 01:13:06;;;;;;;1.95;1.10;;;;;;;-0.60;100.00;98982.59;4939337;29;20440;-55
2023/03/16 01:15:34;;;;;;;2.70;0.90;;;;;;;-0.64;100.00;98981.91;4937757;29;20227;-55
2023/03/16 01:18:01;;;;;;;2.00;1.23;;;;;;;-0.61;100.00;98984.34;4923398;29;20717;-53
2023/03/16 01:20:28;;;;;;;2.63;1.20;;;;;;;-0.65;100.00;98976.84;4928486;29;20289;-56
2023/03/16 01:22:54;;;;;;;1.43;1.10;;;;;;;-0.64;100.00;98970.81;4939268;29;20239;-55
2023/03/16 01:25:23;;;;;;;0.73;0.60;;;;;;;-0.76;100.00;98970.47;4923301;29;20227;-56
2023/03/16 01:27:52;;;;;;;2.33;1.00;;;;;;;-0.77;100.00;98963.69;4933335;29;20230;-55
2023/03/16 01:30:19;;;;;;;3.73;0.90;;;;;;;-0.68;100.00;98964.16;4926356;29;20228;-54
2023/03/16 01:32:47;;;;;;;1.80;0.80;;;;;;;-0.76;100.00;98964.53;4939047;29;20694;-55
2023/03/16 01:35:14;;;;;;;1.87;0.80;;;;;;;-0.79;100.00;98957.81;4911308;29;20698;-56
2023/03/16 01:37:41;;;;;;;2.37;0.90;;;;;;;-0.78;100.00;98951.78;4918960;29;20236;-56
2023/03/16 01:40:14;;;;;;;1.70;0.90;;;;;;;-0.75;100.00;98953.38;4918614;29;20227;-56
2023/03/16 01:42:45;;;;;;;2.40;1.00;;;;;;;-0.78;100.00;98949.22;4921525;29;20257;-57
2023/03/16 01:45:49;;;;;;;2.63;1.07;;;;;;;-0.78;100.00;98943.28;4925725;29;20254;-54
2023/03/16 01:48:18;;;;;;;2.53;0.77;;;;;;;-0.83;100.00;98948.59;4921887;29;20234;-56
2023/03/16 01:50:45;;;;;;;2.33;1.03;;;;;;;-0.80;100.00;98935.63;4937275;29;20695;-55
2023/03/16 01:53:12;;;;;;;2.23;0.90;;;;;;;-0.79;100.00;98931.34;4925999;29;20223;-57
2023/03/16 01:55:38;;;;;;;1.90;1.03;;;;;;;-0.82;100.00;98927.19;4936999;28;20260;-54
2023/03/16 01:58:06;;;;;;;2.80;0.93;;;;;;;-0.84;100.00;98923.88;4927971;29;20586;-55
2023/03/16 02:00:33;;;;;;;1.43;0.80;;;;;;;-0.83;100.00;98922.97;4925092;29;20237;-55
2023/03/16 02:03:20;;;;;;;2.90;0.90;;;;;;;-0.86;100.00;98919.72;4925882;29;20236;-55
2023/03/16 02:05:58;;;;;;;2.60;0.60;;;;;;;-0.76;100.00;98926.09;4923786;29;20265;-56
2023/03/16 02:08:27;;;;;;;2.80;1.00;;;;;;;-0.81;100.00;98923.72;4929934;29;20268;-54
2023/03/16 02:10:56;;;;;;;2.07;1.00;;;;;;;-0.80;100.00;98932.25;4922312;29;20238;-52
2023/03/16 02:13:32;;;;;;;2.10;0.60;;;;;;;-0.69;100.00;98922.34;4938582;29;20282;-53
2023/03/16 02:16:00;;;;;;;2.70;1.07;;;;;;;-0.64;100.00;98927.22;4923855;29;20227;-52
2023/03/16 02:18:28;;;;;;;3.53;0.70;;;;;;;-0.79;100.00;98929.59;4934211;29;20249;-56
2023/03/16 02:21:04;;;;;;;1.87;0.90;;;;;;;-0.83;100.00;98928.09;4937628;29;20234;-53
2023/03/16 02:23:31;;;;;;;3.80;0.90;;;;;;;-0.81;100.00;98921.16;4935532;29;20568;-56
2023/03/16 02:26:06;;;;;;;2.27;0.63;;;;;;;-0.90;100.00;98919.03;4940742;29;20238;-55
2023/03/16 02:28:41;;;;;;;3.80;0.90;;;;;;;-0.89;100.00;98933.50;4925430;29;20325;-55
2023/03/16 02:31:09;;;;;;;3.40;0.70;;;;;;;-0.88;100.00;98921.53;4938404;29;20345;-56
2023/03/16 02:33:36;;;;;;;2.70;0.80;;;;;;;-0.90;100.00;98919.03;4937395;29;20233;-57
2023/03/16 02:36:04;;;;;;;3.67;1.13;;;;;;;-0.96;100.00;98914.19;4925531;29;20228;-57
2023/03/16 02:38:31;;;;;;;4.97;0.93;;;;;;;-1.00;100.00;98917.78;4921837;29;20227;-57
2023/03/16 02:41:01;;;;;;;2.93;0.90;;;;;;;-1.07;100.00;98917.25;4926494;29;20231;-56
2023/03/16 02:43:33;;;;;;;3.17;1.10;;;;;;;-1.07;100.00;98914.69;4912104;29;20449;-54
2023/03/16 02:46:17;;;;;;;2.90;0.90;;;;;;;-1.13;100.00;98915.81;4922522;29;20243;-53
2023/03/16 02:48:48;;;;;;;2.77;1.10;;;;;;;-0.98;100.00;98906.56;4937884;29;20234;-55
2023/03/16 02:51:15;;;;;;;1.73;0.77;;;;;;;-1.11;100.00;98919.13;4917305;29;20253;-53
2023/03/16 02:53:42;;;;;;;3.13;1.00;;;;;;;-1.11;100.00;98908.88;4927877;29;20315;-55
2023/03/16 02:56:09;;;;;;;2.37;1.07;;;;;;;-1.12;100.00;98911.50;4913385;29;20239;-56
2023/03/16 02:58:36;;;;;;;1.07;0.70;;;;;;;-1.18;100.00;98902.38;4933651;29;20243;-54
2023/03/16 03:01:07;;;;;;;2.93;0.80;;;;;;;-1.12;100.00;98907.22;4936611;29;20238;-54
2023/03/16 03:03:36;;;;;;;0.80;0.80;;;;;;;-1.03;100.00;98895.69;4933801;29;20314;-53
2023/03/16 03:06:04;;;;;;;2.67;0.80;;;;;;;-1.08;100.00;98887.41;4941548;28;20262;-57
2023/03/16 03:08:35;;;;;;;1.10;0.80;;;;;;;-1.10;100.00;98886.63;4929246;29;20245;-53
2023/03/16 03:11:02;;;;;;;2.70;0.70;;;;;;;-1.09;100.00;98886.59;4923638;29;20245;-53
2023/03/16 03:13:30;;;;;;;4.33;0.90;;;;;;;-1.01;100.00;98875.13;4935657;29;20313;-56
2023/03/16 03:15:57;;;;;;;3.03;1.20;;;;;;;-0.98;100.00;98877.53;4935507;29;20727;-54
2023/03/16 03:18:26;;;;;;;1.73;1.00;;;;;;;-0.94;100.00;98874.78;4939409;29;20622;-55
2023/03/16 03:20:54;;;;;;;4.00;1.17;;;;;;;-0.81;100.00;98872.47;4926856;29;20766;-54
2023/03/16 03:23:21;;;;;;;1.83;1.13;;;;;;;-0.72;100.00;98870.38;4921857;29;20240;-54
2023/03/16 03:25:47;;;;;;;5.10;1.97;;;;;;;-0.56;100.00;98871.28;4924171;29;20237;-51
2023/03/16 03:28:15;;;;;;;3.47;1.40;;;;;;;-0.50;100.00;98859.88;4909049;29;20222;-53
2023/03/16 03:30:42;;;;;;;6.40;1.80;;;;;;;-0.33;100.00;98865.03;4923019;29;20318;-55
2023/03/16 03:33:08;;;;;;;2.80;1.73;;;;;;;-0.21;100.00;98863.59;4934301;29;20254;-52
2023/03/16 03:35:38;;;;;;;2.60;1.30;;;;;;;-0.18;100.00;98863.47;4918786;29;20223;-52
2023/03/16 03:38:06;;;;;;;3.47;1.70;;;;;;;-0.10;100.00;98864.81;4930024;29;20229;-52
2023/03/16 03:40:34;;;;;;;4.13;1.80;;;;;;;-0.08;100.00;98858.69;4928577;29;20241;-54
2023/03/16 03:43:03;;;;;;;3.67;1.70;;;;;;;-0.01;100.00;98854.09;4923408;29;20301;-55
2023/03/16 03:45:31;;;;;;;3.43;1.30;;;;;;;0.06;100.00;98854.59;4927337;29;20235;-52
2023/03/16 03:47:58;;;;;;;2.10;1.30;;;;;;;0.14;100.00;98855.03;4929769;29;20230;-54
2023/03/16 03:50:25;;;;;;;7.73;1.90;;;;;;;0.13;100.00;98850.78;4943236;29;20317;-56
2023/03/16 03:53:19;;;;;;;3.73;1.60;;;;;;;0.21;100.00;98861.50;4909062;29;20606;-57
2023/03/16 03:56:04;;;;;;;4.70;1.43;;;;;;;0.23;100.00;98851.13;4934665;29;20242;-57
2023/03/16 03:58:31;;;;;;;2.30;1.27;;;;;;;0.28;100.00;98851.72;4928562;29;20239;-57
2023/03/16 04:00:58;;;;;;;1.90;1.17;;;;;;;0.24;100.00;98855.38;4929307;29;20869;-54
2023/03/16 04:03:25;;;;;;;2.60;1.20;;;;;;;0.19;100.00;98855.63;4938163;29;20226;-54
2023/03/16 04:05:52;;;;;;;4.50;1.37;;;;;;;0.10;100.00;98863.78;4928260;29;20286;-56
2023/03/16 04:08:20;;;;;;;2.43;1.67;;;;;;;0.01;100.00;98861.69;4933249;29;20579;-53
2023/03/16 04:10:48;;;;;;;6.93;2.30;;;;;;;-0.07;100.00;98865.47;4930321;29;20246;-53
2023/03/16 04:13:15;;;;;;;4.07;1.70;;;;;;;-0.15;100.00;98865.03;4925562;29;20231;-53
2023/03/16 04:15:45;;;;;;;4.23;2.00;;;;;;;-0.26;100.00;98860.44;4920500;29;20247;-53
2023/03/16 04:18:18;;;;;;;2.50;1.70;;;;;;;-0.37;100.00;98855.81;4917311;29;20222;-55
2023/03/16 04:20:44;;;;;;;3.03;1.93;;;;;;;-0.45;100.00;98855.38;4941883;29;20232;-55
2023/03/16 04:23:16;;;;;;;2.87;2.00;;;;;;;-0.55;100.00;98854.19;4936059;29;20238;-55
2023/03/16 04:25:44;;;;;;;3.10;1.77;;;;;;;-0.52;100.00;98854.00;4941286;29;20241;-56
2023/03/16 04:28:16;;;;;;;2.57;1.77;;;;;;;-0.64;100.00;98846.03;4926723;29;20239;-53
2023/03/16 04:33:21;;;;;;;5.40;2.37;;;;;;;-0.76;100.00;98841.50;4940462;28;20478;-55
2023/03/16 04:35:48;;;;;;;5.53;2.77;;;;;;;-0.83;100.00;98843.50;4932488;29;20259;-53
2023/03/16 04:38:16;;;;;;;5.33;2.90;;;;;;;-0.84;100.00;98844.41;4936797;28;20590;-54
2023/03/16 04:40:54;;;;;;;3.97;2.10;;;;;;;-0.95;100.00;98851.78;4926296;29;20243;-53
2023/03/16 04:43:24;;;;;;;4.57;2.42;;;;;;;-0.98;100.00;98849.34;4934880;23;20418;-52
2023/03/16 04:45:57;;;;;;;4.37;2.53;;;;;;;-0.97;100.00;98841.63;4980575;28;20320;-54
2023/03/16 04:48:27;;;;;;;6.73;3.03;;;;;;;-1.01;100.00;98841.81;4956646;28;20231;-52
2023/03/16 04:50:54;;;;;;;4.13;2.90;;;;;;;-1.01;100.00;98841.81;4965491;28;20637;-53
2023/03/16 04:53:21;;;;;;;5.87;2.40;;;;;;;-1.07;100.00;98833.53;4946603;28;20542;-53
2023/03/16 04:55:56;;;;;;;2.23;1.40;;;;;;;-1.01;100.00;98840.09;4962685;28;20311;-52
2023/03/16 04:58:23;;;;;;;4.07;1.80;;;;;;;-1.10;100.00;98843.09;4982325;28;20320;-54
2023/03/16 05:00:51;;;;;;;6.67;3.73;;;;;;;-1.08;100.00;98847.25;4987069;28;20233;-53
2023/03/16 05:03:22;;;;;;;9.27;5.37;;;;;;;-1.12;100.00;98850.84;4984894;28;20236;-54
2023/03/16 05:05:50;;;;;;;20.83;15.20;;;;;;;-1.11;100.00;98842.28;5003658;28;20233;-53
2023/03/16 05:08:17;;;;;;;13.80;6.90;;;;;;;-1.13;100.00;98844.06;4984983;28;20709;-55
2023/03/16 05:10:47;;;;;;;9.40;5.07;;;;;;;-1.14;100.00;98844.97;5001886;28;20233;-52
2023/03/16 05:13:16;;;;;;;7.77;4.43;;;;;;;-1.14;100.00;98842.41;4984843;28;20237;-53
2023/03/16 05:15:45;;;;;;;7.63;4.60;;;;;;;-1.20;100.00;98835.00;4987372;28;20231;-51
2023/03/16 05:18:21;;;;;;;11.27;4.80;;;;;;;-1.20;100.00;98845.25;4984356;28;20763;-51
2023/03/16 05:20:50;;;;;;;7.23;4.67;;;;;;;-1.24;100.00;98842.00;4988280;28;20224;-51
2023/03/16 05:23:19;;;;;;;11.60;5.00;;;;;;;-1.28;100.00;98842.22;4983257;28;20243;-52
2023/03/16 05:25:49;;;;;;;8.03;5.20;;;;;;;-1.26;100.00;98838.66;5004591;28;20733;-52
2023/03/16 05:28:20;;;;;;;7.87;4.60;;;;;;;-1.28;100.00;98837.91;4983943;28;20591;-53
2023/03/16 05:30:56;;;;;;;8.03;5.27;;;;;;;-1.35;100.00;98837.38;5001591;28;20248;-53
2023/03/16 05:33:26;;;;;;;9.53;5.40;;;;;;;-1.38;100.00;98831.53;4983982;28;20293;-53
2023/03/16 05:36:01;;;;;;;12.13;5.27;;;;;;;-1.35;100.00;98833.97;4985808;28;20739;-51
2023/03/16 05:38:30;;;;;;;6.90;4.57;;;;;;;-1.38;100.00;98834.94;4988182;28;20229;-52
2023/03/16 05:41:00;;;;;;;8.47;4.77;;;;;;;-1.41;100.00;98829.13;4986985;28;20237;-53
2023/03/16 05:43:46;;;;;;;8.60;5.00;;;;;;;-1.44;100.00;98827.53;4999291;28;20438;-51
2023/03/16 05:46:15;;;;;;;8.07;4.80;;;;;;;-1.42;100.00;98823.19;4984562;28;20322;-52
2023/03/16 05:48:44;;;;;;;7.57;4.60;;;;;;;-1.39;100.00;98829.88;4986613;28;20257;-51
2023/03/16 05:51:13;;;;;;;8.63;4.90;;;;;;;-1.41;100.00;98824.84;4983146;28;20565;-51
2023/03/16 05:53:41;;;;;;;10.47;4.70;;;;;;;-1.39;100.00;98824.75;4986877;28;20255;-52
2023/03/16 05:56:16;;;;;;;7.10;4.63;;;;;;;-1.35;100.00;98826.28;5000481;28;20688;-51
2023/03/16 05:58:46;;;;;;;6.80;4.13;;;;;;;-1.34;100.00;98826.22;4985613;28;20229;-51
2023/03/16 06:01:14;;;;;;;7.23;4.27;;;;;;;-1.32;100.00;98825.31;4981187;28;20331;-51
2023/03/16 06:03:43;;;;;;;9.43;4.40;;;;;;;-1.28;100.00;98825.09;4985425;28;20248;-50
2023/03/16 06:06:16;;;;;;;6.63;3.57;;;;;;;-1.26;100.00;98827.59;4982320;28;20642;-53
2023/03/16 06:08:53;;;;;;;11.27;2.87;;;;;;;-1.20;100.00;98829.88;4998836;28;20227;-52
2023/03/16 06:11:22;;;;;;;5.50;2.70;;;;;;;-1.23;100.00;98833.41;4983722;28;20279;-53
2023/03/16 06:13:56;;;;;;;5.03;2.93;;;;;;;-1.16;100.00;98836.53;5003620;28;20247;-53
2023/03/16 06:16:23;;;;;;;6.30;3.53;;;;;;;-1.13;100.00;98836.38;4999130;28;20292;-50
2023/03/16 06:18:50;;;;;;;6.83;4.83;;;;;;;-1.06;100.00;98832.59;4985637;28;20726;-51
2023/03/16 06:21:17;;;;;;;7.63;4.13;;;;;;;-1.02;100.00;98842.72;4981800;28;20232;-50
2023/03/16 06:23:46;;;;;;;6.23;4.40;;;;;;;-1.00;100.00;98841.75;4984186;28;20232;-50
2023/03/16 06:26:14;;;;;;;8.60;4.97;;;;;;;-0.95;100.00;98833.84;4997695;28;20228;-50
2023/03/16 06:28:44;;;;;;;6.33;4.00;;;;;;;-0.86;100.00;98846.22;4984161;28;20227;-52
2023/03/16 06:31:12;;;;;;;6.77;3.77;;;;;;;-0.82;100.00;98842.59;4998517;28;20228;-52
2023/03/16 06:33:40;;;;;;;7.37;4.13;;;;;;;-0.76;100.00;98850.00;4981754;28;20228;-51
2023/03/16 06:36:08;;;;;;;9.50;3.97;;;;;;;-0.73;100.00;98853.31;5001818;28;20283;-51
2023/03/16 06:38:42;;;;;;;6.63;3.73;;;;;;;-0.64;100.00;98847.75;4984693;28;20235;-50
2023/03/16 06:41:24;;;;;;;7.77;3.03;;;;;;;-0.51;100.00;98848.81;4981611;28;20232;-53
2023/03/16 06:43:51;;;;;;;2.77;2.03;;;;;;;-0.42;100.00;98847.53;4999363;28;20229;-53
2023/03/16 06:46:19;;;;;;;6.40;3.00;;;;;;;-0.37;100.00;98844.75;4979869;28;20564;-51
2023/03/16 06:48:46;;;;;;;4.70;2.10;;;;;;;-0.35;100.00;98848.88;4983792;28;20627;-53
2023/03/16 06:51:13;;;;;;;3.53;1.73;;;;;;;-0.29;100.00;98850.34;4981449;28;20245;-50
2023/03/16 06:53:40;;;;;;;4.37;2.73;;;;;;;-0.26;100.00;98849.34;4982924;28;20318;-51
2023/03/16 06:56:08;;;;;;;6.70;3.40;;;;;;;-0.20;100.00;98847.31;4999886;28;20622;-50
2023/03/16 06:58:39;;;;;;;6.43;4.20;;;;;;;-0.15;100.00;98847.06;4998473;28;20247;-50
2023/03/16 07:01:06;;;;;;;6.00;4.30;;;;;;;-0.16;100.00;98843.69;4984893;28;20232;-49
2023/03/16 07:03:34;;;;;;;5.33;3.80;;;;;;;-0.11;100.00;98851.13;4981508;28;20631;-50
2023/03/16 07:06:08;;;;;;;9.67;3.90;;;;;;;-0.07;100.00;98850.06;4985633;28;20242;-51
2023/03/16 07:08:35;;;;;;;7.47;3.83;;;;;;;-0.04;100.00;98852.47;4983275;28;20286;-49
2023/03/16 07:11:02;;;;;;;6.47;3.73;;;;;;;0.01;100.00;98854.81;4986411;28;20295;-49
2023/03/16 07:13:29;;;;;;;5.43;3.30;;;;;;;0.06;100.00;98852.00;4981570;28;20247;-52
2023/03/16 07:15:56;;;;;;;3.73;2.30;;;;;;;0.10;100.00;98845.81;4986088;28;20263;-49
2023/03/16 07:18:25;;;;;;;3.93;2.20;;;;;;;0.16;100.00;98847.22;4982934;28;20228;-50
2023/03/16 07:20:54;;;;;;;2.83;1.90;;;;;;;0.17;100.00;98839.47;4985250;28;20236;-50
2023/03/16 07:23:23;;;;;;;1.93;1.40;;;;;;;0.22;100.00;98846.91;4980497;28;20217;-49
2023/03/16 07:25:51;;;;;;;2.03;1.10;;;;;;;0.27;100.00;98840.66;4986535;28;20220;-49
2023/03/16 07:28:19;;;;;;;3.37;1.50;;;;;;;0.35;100.00;98837.66;4983349;28;20707;-50
2023/03/16 07:30:46;;;;;;;4.17;1.70;;;;;;;0.40;100.00;98835.69;4982688;28;20886;-50
2023/03/16 07:33:15;;;;;;;5.27;1.50;;;;;;;0.51;100.00;98845.41;4998599;28;20224;-51
2023/03/16 07:35:42;;;;;;;1.90;1.33;;;;;;;0.58;100.00;98845.88;4985233;28;20228;-50
2023/03/16 07:38:11;;;;;;;4.00;1.57;;;;;;;0.64;100.00;98840.44;4984626;28;20271;-49
2023/03/16 07:40:40;;;;;;;2.07;1.20;;;;;;;0.73;100.00;98839.09;4983645;28;20242;-49
2023/03/16 07:43:13;;;;;;;2.30;1.43;;;;;;;0.80;100.00;98845.56;4983970;28;20625;-51
2023/03/16 07:45:49;;;;;;;2.60;1.33;;;;;;;0.90;100.00;98840.75;4984679;28;20294;-50
2023/03/16 07:48:18;;;;;;;5.23;3.20;;;;;;;1.08;100.00;98838.06;4982044;28;20225;-50
2023/03/16 07:50:51;;;;;;;4.13;1.77;;;;;;;1.20;99.88;98826.28;5000619;28;20348;-50
2023/03/16 07:53:20;;;;;;;3.60;2.53;;;;;;;1.33;99.71;98824.69;4981699;28;20771;-49
2023/03/16 07:55:51;;;;;;;7.43;2.87;;;;;;;1.47;99.07;98814.44;5004350;28;20630;-50
2023/03/16 07:58:18;;;;;;;3.93;2.20;;;;;;;1.66;99.04;98815.91;4985313;28;20224;-50
2023/03/16 08:00:46;;;;;;;2.60;2.23;;;;;;;1.83;98.71;98816.66;4988223;28;20236;-50
2023/03/16 08:03:13;;;;;;;5.00;2.60;;;;;;;2.01;97.77;98814.78;5000834;28;20224;-50
2023/03/16 08:05:40;;;;;;;13.23;6.17;;;;;;;2.20;96.44;98819.63;4988116;28;20232;-50
2023/03/16 08:08:14;;;;;;;16.47;7.63;;;;;;;2.38;94.25;98829.75;4988078;28;20229;-50
2023/03/16 08:10:43;;;;;;;10.07;5.23;;;;;;;2.50;93.96;98827.22;4985599;28;20250;-53
2023/03/16 08:13:14;;;;;;;8.80;5.63;;;;;;;2.65;92.50;98824.63;5001033;28;20231;-53
2023/03/16 08:15:46;;;;;;;13.63;6.60;;;;;;;2.77;91.59;98836.75;5005355;28;20259;-50
2023/03/16 08:18:20;;;;;;;12.80;6.10;;;;;;;2.93;92.00;98828.88;5001980;28;20310;-52
2023/03/16 08:20:47;;;;;;;12.10;5.87;;;;;;;3.04;91.42;98838.53;4988832;28;20236;-50
2023/03/16 08:23:14;;;;;;;10.47;5.27;;;;;;;3.11;92.29;98831.22;5001399;28;20220;-51
2023/03/16 08:25:43;;;;;;;12.50;5.27;;;;;;;3.26;91.34;98824.22;4988134;28;20232;-52
2023/03/16 08:28:15;;;;;;;13.93;6.03;;;;;;;3.21;90.33;98811.63;4986165;28;20227;-52
2023/03/16 08:30:46;;;;;;;10.13;5.67;;;;;;;3.22;90.97;98813.28;5005563;28;20353;-53
2023/03/16 08:33:31;;;;;;;9.33;4.73;;;;;;;3.43;90.12;98830.88;5002386;28;20228;-51
2023/03/16 08:35:59;;;;;;;7.23;4.77;;;;;;;3.44;88.76;98839.44;4988125;28;20226;-52
2023/03/16 08:38:26;;;;;;;7.00;4.13;;;;;;;3.38;88.07;98844.06;4984789;28;20624;-52
2023/03/16 08:40:56;;;;;;;6.43;4.17;;;;;;;3.41;88.85;98861.13;4988185;28;20232;-51
2023/03/16 08:43:25;;;;;;;7.90;4.93;;;;;;;3.48;90.17;98854.66;5000925;28;20698;-52
2023/03/16 08:45:52;;;;;;;8.50;4.87;;;;;;;3.37;90.18;98857.91;5004367;28;20248;-53
2023/03/16 08:48:22;;;;;;;7.43;5.20;;;;;;;3.50;90.84;98857.09;4983981;28;20222;-52
2023/03/16 08:50:52;;;;;;;9.73;5.43;;;;;;;3.62;88.88;98851.16;4987735;28;20235;-50
2023/03/16 08:53:19;;;;;;;6.60;4.60;;;;;;;3.77;88.58;98858.81;4984327;28;20238;-51
2023/03/16 08:55:47;;;;;;;8.37;5.30;;;;;;;3.77;89.02;98859.63;5005338;28;20266;-50
2023/03/16 08:58:15;;;;;;;7.47;4.70;;;;;;;3.87;88.56;98854.69;5001771;28;20225;-50
2023/03/16 09:00:41;;;;;;;8.23;4.77;;;;;;;3.96;87.43;98848.91;4987950;28;20308;-50
2023/03/16 09:03:09;;;;;;;5.50;4.43;;;;;;;4.10;87.26;98845.38;5003811;28;20315;-50
2023/03/16 09:05:35;;;;;;;12.10;5.20;;;;;;;4.13;86.23;98832.25;5000460;28;20236;-53
2023/03/16 09:08:03;;;;;;;7.73;5.10;;;;;;;4.24;85.79;98826.34;5003656;28;20251;-50
2023/03/16 09:10:31;;;;;;;7.53;4.93;;;;;;;4.27;86.38;98820.97;5002723;28;20698;-50
2023/03/16 09:12:57;;;;;;;6.37;4.63;;;;;;;4.40;85.78;98817.53;5002449;28;20240;-50
2023/03/16 09:15:25;;;;;;;10.17;5.13;;;;;;;4.46;87.77;98817.13;4982854;28;20283;-52
2023/03/16 09:17:53;;;;;;;8.90;5.40;;;;;;;4.67;87.09;98803.63;5004687;28;20232;-50
2023/03/16 09:20:20;;;;;;;9.30;5.63;;;;;;;4.80;85.37;98798.38;5002681;28;20236;-52
2023/03/16 09:22:47;;;;;;;11.40;6.00;;;;;;;4.81;85.48;98794.88;5003146;28;20265;-50
2023/03/16 09:25:14;;;;;;;15.10;6.20;;;;;;;4.83;84.26;98796.41;5000507;28;20220;-51
2023/03/16 09:27:41;;;;;;;9.60;5.90;;;;;;;4.98;85.28;98784.13;5004726;28;20642;-51
2023/03/16 09:30:09;;;;;;;8.87;5.50;;;;;;;5.20;83.08;98785.16;5004335;28;20228;-50
2023/03/16 09:32:37;;;;;;;9.43;5.73;;;;;;;5.25;82.86;98785.66;5001524;28;20235;-53
2023/03/16 09:35:05;;;;;;;9.93;5.77;;;;;;;5.27;82.22;98794.13;5003926;28;20241;-50
2023/03/16 09:37:32;;;;;;;7.17;4.30;;;;;;;5.32;82.04;98793.78;5001198;28;20247;-50
2023/03/16 09:39:58;;;;;;;6.23;4.33;;;;;;;5.32;83.23;98809.31;4987652;28;20241;-50
2023/03/16 09:42:33;;;;;;;8.70;5.17;;;;;;;5.41;84.50;98803.44;5001538;28;20299;-51
2023/03/16 09:45:09;;;;;;;7.43;5.17;;;;;;;5.58;82.34;98801.38;5002110;28;20803;-50
2023/03/16 09:47:40;;;;;;;10.13;4.63;;;;;;;5.61;83.21;98803.75;5000891;28;20324;-50
2023/03/16 09:50:13;;;;;;;5.77;4.80;;;;;;;5.63;84.32;98809.63;5004537;28;20264;-50
2023/03/16 09:52:49;;;;;;;8.13;5.37;;;;;;;5.62;83.13;98805.38;5000108;28;20241;-51
2023/03/16 09:55:26;;;;;;;11.03;5.20;;;;;;;5.61;83.36;98807.16;5001525;28;20252;-51
2023/03/16 09:57:53;;;;;;;10.70;5.50;;;;;;;5.50;84.65;98804.56;5003253;28;20234;-50
2023/03/16 10:00:22;;;;;;;9.50;5.30;;;;;;;5.61;83.97;98798.56;5002033;28;20334;-52
2023/03/16 10:03:15;;;;;;;7.23;5.20;;;;;;;5.64;84.31;98803.50;5003904;28;20327;-50
2023/03/16 10:05:42;;;;;;;10.43;6.50;;;;;;;5.75;84.23;98792.38;4982491;28;20231;-52
2023/03/16 10:08:13;;;;;;;7.07;5.33;;;;;;;5.89;82.80;98791.31;4986584;28;20573;-50
2023/03/16 10:11:02;;;;;;;8.30;5.60;;;;;;;6.00;83.10;98785.28;5001529;28;20251;-50
2023/03/16 10:13:36;;;;;;;7.93;5.73;;;;;;;5.93;83.66;98792.72;5000083;28;20236;-50
2023/03/16 10:16:09;;;;;;;10.47;6.57;;;;;;;5.97;83.76;98786.38;4985920;28;20292;-50
2023/03/16 10:18:43;;;;;;;11.03;6.47;;;;;;;6.26;83.28;98779.91;4998785;28;20231;-50
2023/03/16 10:21:15;;;;;;;9.63;5.67;;;;;;;6.49;81.47;98776.34;5003514;28;20587;-53
2023/03/16 10:23:43;;;;;;;10.20;6.57;;;;;;;6.62;81.19;98777.97;5000469;28;20256;-50
2023/03/16 10:26:14;;;;;;;8.53;5.87;;;;;;;7.06;78.52;98780.53;5004069;28;20265;-52
2023/03/16 10:28:41;;;;;;;9.93;5.90;;;;;;;7.10;76.45;98776.72;5000717;28;20252;-53
2023/03/16 10:31:11;;;;;;;9.23;5.53;;;;;;;7.07;75.57;98769.19;5003578;28;20247;-53
2023/03/16 10:33:40;;;;;;;10.27;6.83;;;;;;;7.22;76.24;98767.09;5000051;28;20251;-53
2023/03/16 10:36:14;;;;;;;9.00;5.97;;;;;;;7.42;74.50;98762.06;5001805;28;20228;-50
2023/03/16 10:38:45;;;;;;;9.27;5.47;;;;;;;7.38;75.24;98761.50;5000338;28;20229;-50
2023/03/16 10:41:21;;;;;;;9.90;5.50;;;;;;;7.15;72.98;98756.41;4999902;28;20232;-51
2023/03/16 10:43:51;;;;;;;9.30;4.70;;;;;;;7.21;71.85;98755.91;5000680;28;20224;-52
2023/03/16 10:46:18;;;;;;;7.50;4.23;;;;;;;7.31;70.78;98755.16;4999489;28;20220;-52
2023/03/16 10:48:58;;;;;;;5.33;3.97;;;;;;;7.66;68.11;98753.97;5001783;28;20678;-51
2023/03/16 10:51:28;;;;;;;5.93;3.57;;;;;;;7.93;66.46;98752.59;4998505;28;20231;-52
2023/03/16 10:54:09;;;;;;;6.90;3.83;;;;;;;8.03;65.38;98750.88;5002712;28;20225;-52
2023/03/16 10:56:36;;;;;;;9.33;4.60;;;;;;;8.11;64.24;98753.63;4999803;28;20315;-50
2023/03/16 10:59:14;;;;;;;9.20;3.63;;;;;;;8.25;63.36;98749.03;5002671;28;20307;-51
2023/03/16 11:01:45;;;;;;;8.53;3.43;;;;;;;8.12;64.43;98757.03;5001524;28;20229;-52
2023/03/16 11:04:15;;;;;;;7.40;4.77;;;;;;;8.07;66.96;98749.66;5001177;28;20226;-53
2023/03/16 11:06:49;;;;;;;6.83;4.73;;;;;;;8.22;67.87;98744.91;4998866;28;21040;-54
2023/03/16 11:09:20;;;;;;;7.70;4.80;;;;;;;8.14;67.38;98747.31;4997530;28;20225;-53
2023/03/16 11:11:48;;;;;;;10.47;5.33;;;;;;;8.16;67.50;98748.03;5002613;28;20237;-51
2023/03/16 11:14:15;;;;;;;7.00;5.70;;;;;;;8.33;66.89;98741.38;4998415;28;20457;-50
2023/03/16 11:16:46;;;;;;;9.67;5.93;;;;;;;8.33;67.64;98746.56;5003901;28;20235;-53
2023/03/16 11:19:21;;;;;;;8.23;5.87;;;;;;;8.54;67.22;98746.50;5003215;28;20242;-51
2023/03/16 11:21:53;;;;;;;10.53;5.67;;;;;;;8.35;65.57;98741.22;4999233;28;20719;-50
2023/03/16 11:24:25;;;;;;;8.80;4.80;;;;;;;8.57;63.71;98741.03;4999859;28;20233;-51
2023/03/16 11:26:55;;;;;;;8.43;4.90;;;;;;;8.75;64.35;98742.13;4985629;28;20239;-53
2023/03/16 11:29:27;;;;;;;10.70;4.97;;;;;;;8.88;63.60;98739.28;5004288;28;20234;-50
2023/03/16 11:32:00;;;;;;;10.37;4.83;;;;;;;9.09;63.35;98732.13;5006956;28;20291;-53
2023/03/16 11:34:29;;;;;;;6.97;4.80;;;;;;;8.99;63.76;98733.94;5003631;28;20234;-51
2023/03/16 11:37:00;;;;;;;7.53;4.80;;;;;;;9.05;63.06;98729.94;5005996;28;20264;-50
2023/03/16 11:39:39;;;;;;;5.40;3.83;;;;;;;9.04;62.53;98733.50;5004028;28;20230;-54
2023/03/16 11:42:20;;;;;;;5.03;3.33;;;;;;;8.91;60.70;98728.59;5006700;28;20234;-53
2023/03/16 11:44:55;;;;;;;6.53;3.43;;;;;;;8.97;61.27;98731.44;4999723;28;20310;-53
2023/03/16 11:47:59;;;;;;;8.97;3.63;;;;;;;9.13;59.95;98722.25;5004020;28;20238;-51